x

Cape Elizabeth- 45nm Nw Of Aberdeen, Wa (46041) Wave Buoy

10:50 - Thu 22nd Jun 2017 All times are PDT. -7 hours from GMT.

  • Sig Wave height 6.9ft
  • Swell Direction
  • Peak Period 8s
  • Average Period 6s
  • Wind
    9mph, 11mph gusts
  • Sea Temp 58°f
  • Ar Temp 56°f
  • Sea Pressure 1026.9mb
  • Cape Elizabeth- 45nm Nw Of Aberdeen, Wa
  • Cape Elizabeth- 45nm Nw Of Aberdeen, Wa

More Historic Weather Station data

Upgrade to MSW Pro to gain access to the past 30 days of data for over 8000 Wavebouys and Weather Stations around the globe.

Join Pro

Comparision Forecast

View Surf forecast
   
Qui 06/22 10:50 7ft 8s 6s 9 11 mph 1026.9mb 58f 56f
9:50 8ft 8s 7s 7 9 mph 1026.9mb 58f 56f
8:50 7.5ft 8s 7s 7 11 mph 1026.8mb 57f 56f
7:50 7.5ft 9s 7s 9 13 mph 1026.7mb 57f 55f
6:50 6ft 10s 7s 7 9 mph 1026.6mb 57f 55f
5:50 6ft 8s 7s 11 13 mph 1026.5mb 58f 55f
4:50 6ft 8s 7s 11 13 mph 1026.4mb 58f 55f
3:50 6.5ft 10s 7s 11 16 mph 1026.6mb 59f 56f
2:50 6ft 10s 6s 13 16 mph 1026.5mb 59f 56f
1:50 6.5ft 10s 6s 18 20 mph 1026.4mb 59f 56f
12:50 6ft 7s 6s 18 22 mph 1026.5mb 59f 56f
Qua 06/21 11:50 7ft 10s 6s 18 22 mph 1026.3mb 59f 56f
10:50 6.5ft 11s 6s 20 25 mph 1026.5mb 59f 56f
9:50 6.5ft 10s 6s 20 25 mph 1026.3mb 59f 56f
8:50 7.5ft 10s 6s 22 25 mph 1026.4mb 59f 56f
7:50 7ft 9s 6s 22 25 mph 1026.4mb 58f 56f
6:50 6.5ft 7s 6s 20 25 mph 1026.7mb 59f 56f
5:50 6.5ft 6s 6s 20 25 mph 1027.1mb 59f 56f
4:50 5.5ft 8s 5s 20 22 mph 1027.5mb 60f 56f
3:50 5.5ft 9s 6s 20 22 mph 1027.7mb 60f 56f
2:50 5ft 8s 5s 18 20 mph 1027.9mb 59f 56f
1:50 5ft 7s 5s 16 20 mph 1028mb 59f 56f
12:50 5ft 6s 5s 18 20 mph 1028.1mb 59f 56f
11:50 5.5ft 7s 5s 16 20 mph 1028.1mb 59f 56f
10:50 5ft 7s 6s 18 22 mph 1028mb 59f 56f
9:50 5ft 6s 5s 16 20 mph 1027.8mb 59f 56f
8:50 5ft 7s 5s 16 20 mph 1027.7mb 59f 56f
7:50 5ft 6s 5s 18 22 mph 1027mb 59f 56f
6:50 5.5ft 6s 5s 18 22 mph 1027mb 59f 56f
5:50 6ft 6s 5s 18 22 mph 1026.8mb 59f 56f
4:50 5ft 6s 5s 20 22 mph 1026.5mb 59f 56f
3:50 6ft 6s 5s 20 25 mph 1026.5mb 59f 56f
2:50 6ft 6s 5s 20 25 mph 1025.9mb 59f 56f
1:50 6.5ft 6s 5s 20 25 mph 1025.7mb 59f 56f
12:50 7ft 6s 5s 22 25 mph 1025.5mb 59f 56f
Ter 06/20 11:50 7ft 6s 5s 20 25 mph 1025.5mb 59f 56f
10:50 7ft 6s 6s 20 25 mph 1025.6mb 59f 56f
9:50 7ft 6s 6s 20 25 mph 1025.3mb 60f 56f
8:50 6.5ft 7s 6s 20 25 mph 1025mb 60f 56f
7:50 6ft 6s 6s 20 25 mph 1025mb 60f 56f
6:50 6ft 7s 6s 20 25 mph 1024.8mb 60f 57f
5:50 6ft 7s 6s 20 25 mph 1024.7mb 59f 56f
4:50 6ft 6s 6s 20 25 mph 1025.1mb 60f 57f
3:50 5.5ft 11s 5s 20 22 mph 1024.7mb 60f 56f
2:50 6ft 6s 5s 20 25 mph 1024.6mb 60f 56f
1:50 6ft 6s 5s 20 25 mph 1024.2mb 59f 56f
12:50 5.5ft 10s 5s 20 25 mph 1023.5mb 60f 57f
11:50 5ft 11s 5s 20 25 mph 1022.6mb 60f 56f
10:50 4.5ft 10s 5s 22 25 mph 1021.8mb 60f 56f
9:50 4.5ft 10s  -  20 25 mph 1020.8mb 60f 56f
8:50 4.5ft 10s 7s 22 25 mph 1020.4mb 61f 57f
7:50 4ft 8s 7s 11 11 mph 1019.8mb 61f 57f
6:50 4.5ft 9s 7s 9 11 mph 1019.2mb 61f 57f
5:50 4.5ft 8s 7s 4 7 mph 1018.8mb 61f 57f
4:50 4.5ft 9s 7s 4 7 mph 1018.6mb 61f 57f
3:50 4.5ft 9s 7s 2 4 mph 1018.4mb 61f 57f
2:50 5ft 8s 8s 2 4 mph 1018.3mb 60f 57f
1:50 4.5ft 10s 7s 4 7 mph 1018.3mb 60f 57f
12:50 4.5ft 10s 7s 7 9 mph 1018mb 60f 56f
Seg 06/19 11:50 4.5ft 9s 7s 9 11 mph 1017.9mb 60f 56f
10:50 4.5ft 10s 7s 11 11 mph 1017.6mb 61f 57f
9:50 4.5ft 9s 8s 11 13 mph 1017.2mb 61f 58f
8:50 4.5ft 10s 8s 9 11 mph 1016.7mb 60f 58f
7:50 4.5ft 10s 7s 9 9 mph 1017mb 60f 58f
6:50 4.5ft 9s 7s 11 13 mph 1016.9mb 59f 58f
5:50 4.5ft 10s 7s 11 13 mph 1016.9mb 60f 58f
4:50 4.5ft 9s 7s 9 11 mph 1017.2mb 60f 58f
3:50 4.5ft 9s  -  11 13 mph 1017.1mb 59f 58f
2:50 5ft 9s 7s 13 16 mph 1017.2mb 59f 57f
1:50 4.5ft 8s 7s 13 16 mph 1016.8mb 58f 57f
12:50 4.5ft 8s 7s 11 13 mph 1016.9mb 59f 58f
11:50 4.5ft 9s 7s 9 11 mph 1017mb 59f 57f
10:50 4.5ft 9s 7s 13 16 mph 1017.1mb 59f 57f
9:50 4ft 9s 7s 11 13 mph 1017.4mb 58f 57f
8:50 4ft 9s 7s 13 16 mph 1017.4mb 58f 56f
7:50 4ft 9s 8s 9 9 mph 1017mb 58f 56f
6:50 4ft 9s 7s 4 4 mph 1016.9mb 58f 56f
5:50 4ft 8s 7s 4 4 mph 1017mb 58f 56f
4:50 4.5ft 9s 7s 7 7 mph 1017.2mb 58f 56f
3:50 3.5ft 9s 7s 7 7 mph 1017.8mb 58f 58f
2:50 4.5ft 9s 7s 4 7 mph 1018.2mb 58f 57f
1:50 4.5ft 9s 7s 4 4 mph 1018.7mb 58f 57f
12:50 4.5ft 8s 7s 2 2 mph 1019.5mb 58f 57f
Dom 06/18 11:50 4.5ft 8s 7s 4 4 mph 1019.9mb 58f 57f
10:50 4.5ft 8s  -  2 4 mph 1020mb 58f 57f
9:50 4.5ft 8s 6s 2 4 mph 1019.7mb 58f 57f
8:50 4.5ft 8s 6s 2 2 mph 1019.7mb 58f 58f
7:50 4ft 9s 6s 2 4 mph 1020mb 59f 58f
6:50 3.5ft 8s 6s 4 7 mph 1020.2mb 59f 58f